sensor_id;sensor_type;location;lat;lon;timestamp;P1;durP1;ratioP1;P2;durP2;ratioP2
45812;SDS011;31519;45.408;10.962;2022-12-18T00:00:07;25.50;;;13.23;;
45812;SDS011;31519;45.408;10.962;2022-12-18T00:02:59;29.25;;;13.75;;
45812;SDS011;31519;45.408;10.962;2022-12-18T00:05:29;30.98;;;13.77;;
45812;SDS011;31519;45.408;10.962;2022-12-18T00:07:57;30.48;;;13.93;;
45812;SDS011;31519;45.408;10.962;2022-12-18T00:10:25;30.25;;;14.18;;
45812;SDS011;31519;45.408;10.962;2022-12-18T00:12:55;26.77;;;13.48;;
45812;SDS011;31519;45.408;10.962;2022-12-18T00:15:24;29.55;;;15.45;;
45812;SDS011;31519;45.408;10.962;2022-12-18T00:17:52;33.65;;;15.30;;
45812;SDS011;31519;45.408;10.962;2022-12-18T00:20:20;38.63;;;16.20;;
45812;SDS011;31519;45.408;10.962;2022-12-18T00:22:53;24.90;;;13.43;;
45812;SDS011;31519;45.408;10.962;2022-12-18T00:25:22;37.03;;;13.18;;
45812;SDS011;31519;45.408;10.962;2022-12-18T00:27:50;24.25;;;13.27;;
45812;SDS011;31519;45.408;10.962;2022-12-18T00:30:19;25.02;;;12.68;;
45812;SDS011;31519;45.408;10.962;2022-12-18T00:32:48;21.75;;;12.77;;
45812;SDS011;31519;45.408;10.962;2022-12-18T00:35:16;29.15;;;12.85;;
45812;SDS011;31519;45.408;10.962;2022-12-18T00:37:46;25.33;;;12.88;;
45812;SDS011;31519;45.408;10.962;2022-12-18T00:40:14;28.05;;;12.85;;
45812;SDS011;31519;45.408;10.962;2022-12-18T00:42:42;23.35;;;13.45;;
45812;SDS011;31519;45.408;10.962;2022-12-18T00:45:26;24.88;;;13.52;;
45812;SDS011;31519;45.408;10.962;2022-12-18T00:47:56;25.00;;;12.23;;
45812;SDS011;31519;45.408;10.962;2022-12-18T00:50:26;22.33;;;12.52;;
45812;SDS011;31519;45.408;10.962;2022-12-18T00:52:54;21.30;;;11.35;;
45812;SDS011;31519;45.408;10.962;2022-12-18T00:55:24;30.30;;;12.80;;
45812;SDS011;31519;45.408;10.962;2022-12-18T00:57:52;21.48;;;11.90;;
45812;SDS011;31519;45.408;10.962;2022-12-18T01:00:21;26.45;;;12.45;;
45812;SDS011;31519;45.408;10.962;2022-12-18T01:02:50;25.95;;;13.70;;
45812;SDS011;31519;45.408;10.962;2022-12-18T01:05:18;26.38;;;14.23;;
45812;SDS011;31519;45.408;10.962;2022-12-18T01:07:46;30.75;;;13.30;;
45812;SDS011;31519;45.408;10.962;2022-12-18T01:10:15;30.30;;;12.75;;
45812;SDS011;31519;45.408;10.962;2022-12-18T01:12:44;26.40;;;13.07;;
45812;SDS011;31519;45.408;10.962;2022-12-18T01:15:13;23.08;;;11.45;;
45812;SDS011;31519;45.408;10.962;2022-12-18T01:17:43;23.48;;;12.52;;
45812;SDS011;31519;45.408;10.962;2022-12-18T01:20:12;25.13;;;12.90;;
45812;SDS011;31519;45.408;10.962;2022-12-18T01:22:40;22.65;;;11.45;;
45812;SDS011;31519;45.408;10.962;2022-12-18T01:25:09;20.98;;;11.70;;
45812;SDS011;31519;45.408;10.962;2022-12-18T01:27:37;30.25;;;11.73;;
45812;SDS011;31519;45.408;10.962;2022-12-18T01:30:06;20.55;;;11.05;;
45812;SDS011;31519;45.408;10.962;2022-12-18T01:32:34;24.83;;;12.05;;
45812;SDS011;31519;45.408;10.962;2022-12-18T01:35:02;19.50;;;10.73;;
45812;SDS011;31519;45.408;10.962;2022-12-18T01:37:30;20.20;;;11.65;;
45812;SDS011;31519;45.408;10.962;2022-12-18T01:40:00;21.80;;;10.93;;
45812;SDS011;31519;45.408;10.962;2022-12-18T01:42:28;23.13;;;12.13;;
45812;SDS011;31519;45.408;10.962;2022-12-18T01:44:58;25.50;;;12.55;;
45812;SDS011;31519;45.408;10.962;2022-12-18T01:50:16;20.75;;;11.27;;
45812;SDS011;31519;45.408;10.962;2022-12-18T01:52:46;21.43;;;11.50;;
45812;SDS011;31519;45.408;10.962;2022-12-18T01:55:25;21.80;;;11.48;;
45812;SDS011;31519;45.408;10.962;2022-12-18T01:57:58;26.73;;;11.43;;
45812;SDS011;31519;45.408;10.962;2022-12-18T02:00:28;20.23;;;10.45;;
45812;SDS011;31519;45.408;10.962;2022-12-18T02:02:57;20.55;;;10.68;;
45812;SDS011;31519;45.408;10.962;2022-12-18T02:08:20;22.65;;;11.40;;
45812;SDS011;31519;45.408;10.962;2022-12-18T02:16:37;23.03;;;10.53;;
45812;SDS011;31519;45.408;10.962;2022-12-18T02:19:37;19.70;;;10.48;;
45812;SDS011;31519;45.408;10.962;2022-12-18T02:28:37;19.98;;;10.05;;
45812;SDS011;31519;45.408;10.962;2022-12-18T02:31:14;18.98;;;9.40;;
45812;SDS011;31519;45.408;10.962;2022-12-18T02:33:53;15.10;;;7.97;;
45812;SDS011;31519;45.408;10.962;2022-12-18T02:36:24;18.55;;;8.50;;
45812;SDS011;31519;45.408;10.962;2022-12-18T02:38:56;14.32;;;8.50;;
45812;SDS011;31519;45.408;10.962;2022-12-18T02:41:26;17.50;;;8.85;;
45812;SDS011;31519;45.408;10.962;2022-12-18T02:44:01;15.93;;;8.48;;
45812;SDS011;31519;45.408;10.962;2022-12-18T02:46:36;14.48;;;8.40;;
45812;SDS011;31519;45.408;10.962;2022-12-18T02:57:01;17.13;;;7.55;;
45812;SDS011;31519;45.408;10.962;2022-12-18T02:59:47;11.95;;;6.75;;
45812;SDS011;31519;45.408;10.962;2022-12-18T03:02:25;11.45;;;7.25;;
45812;SDS011;31519;45.408;10.962;2022-12-18T03:05:22;15.82;;;7.05;;
45812;SDS011;31519;45.408;10.962;2022-12-18T03:08:30;14.13;;;7.82;;
45812;SDS011;31519;45.408;10.962;2022-12-18T03:10:56;19.38;;;6.68;;
45812;SDS011;31519;45.408;10.962;2022-12-18T03:13:28;10.00;;;6.15;;
45812;SDS011;31519;45.408;10.962;2022-12-18T03:15:59;15.43;;;7.20;;
45812;SDS011;31519;45.408;10.962;2022-12-18T03:18:52;11.57;;;6.40;;
45812;SDS011;31519;45.408;10.962;2022-12-18T03:21:57;7.90;;;5.25;;
45812;SDS011;31519;45.408;10.962;2022-12-18T03:24:24;9.52;;;5.28;;
45812;SDS011;31519;45.408;10.962;2022-12-18T03:27:06;14.82;;;6.78;;
45812;SDS011;31519;45.408;10.962;2022-12-18T03:29:54;12.77;;;6.90;;
45812;SDS011;31519;45.408;10.962;2022-12-18T03:35:31;8.90;;;5.60;;
45812;SDS011;31519;45.408;10.962;2022-12-18T03:38:04;13.25;;;5.70;;
45812;SDS011;31519;45.408;10.962;2022-12-18T03:40:40;10.43;;;5.60;;
45812;SDS011;31519;45.408;10.962;2022-12-18T03:46:28;10.02;;;5.13;;
45812;SDS011;31519;45.408;10.962;2022-12-18T03:49:08;8.52;;;5.20;;
45812;SDS011;31519;45.408;10.962;2022-12-18T03:51:57;7.45;;;4.78;;
45812;SDS011;31519;45.408;10.962;2022-12-18T03:54:33;12.88;;;5.43;;
45812;SDS011;31519;45.408;10.962;2022-12-18T03:57:15;9.60;;;4.53;;
45812;SDS011;31519;45.408;10.962;2022-12-18T03:59:50;13.50;;;5.43;;
45812;SDS011;31519;45.408;10.962;2022-12-18T04:02:29;8.40;;;5.03;;
45812;SDS011;31519;45.408;10.962;2022-12-18T04:05:03;9.10;;;4.82;;
45812;SDS011;31519;45.408;10.962;2022-12-18T04:07:36;8.75;;;5.28;;
45812;SDS011;31519;45.408;10.962;2022-12-18T04:10:08;7.75;;;4.93;;
45812;SDS011;31519;45.408;10.962;2022-12-18T04:12:41;12.63;;;4.93;;
45812;SDS011;31519;45.408;10.962;2022-12-18T04:15:12;7.88;;;5.22;;
45812;SDS011;31519;45.408;10.962;2022-12-18T04:17:45;6.97;;;4.85;;
45812;SDS011;31519;45.408;10.962;2022-12-18T04:20:19;10.98;;;5.53;;
45812;SDS011;31519;45.408;10.962;2022-12-18T04:22:48;21.70;;;6.78;;
45812;SDS011;31519;45.408;10.962;2022-12-18T04:25:19;7.90;;;4.93;;
45812;SDS011;31519;45.408;10.962;2022-12-18T04:27:57;10.57;;;5.45;;
45812;SDS011;31519;45.408;10.962;2022-12-18T04:30:26;8.77;;;4.95;;
45812;SDS011;31519;45.408;10.962;2022-12-18T04:32:55;14.40;;;5.75;;
45812;SDS011;31519;45.408;10.962;2022-12-18T04:35:24;8.32;;;5.50;;
45812;SDS011;31519;45.408;10.962;2022-12-18T04:37:53;12.82;;;5.95;;
45812;SDS011;31519;45.408;10.962;2022-12-18T04:40:22;7.60;;;5.47;;
45812;SDS011;31519;45.408;10.962;2022-12-18T04:42:50;8.80;;;4.90;;
45812;SDS011;31519;45.408;10.962;2022-12-18T04:45:18;7.72;;;4.93;;
45812;SDS011;31519;45.408;10.962;2022-12-18T04:47:46;6.45;;;4.57;;
45812;SDS011;31519;45.408;10.962;2022-12-18T04:50:14;6.53;;;4.70;;
45812;SDS011;31519;45.408;10.962;2022-12-18T04:52:45;8.57;;;5.07;;
45812;SDS011;31519;45.408;10.962;2022-12-18T04:55:13;6.88;;;4.25;;
45812;SDS011;31519;45.408;10.962;2022-12-18T04:57:41;7.07;;;5.10;;
45812;SDS011;31519;45.408;10.962;2022-12-18T05:00:10;7.43;;;4.82;;
45812;SDS011;31519;45.408;10.962;2022-12-18T05:02:38;8.30;;;5.05;;
45812;SDS011;31519;45.408;10.962;2022-12-18T05:05:07;8.85;;;5.40;;
45812;SDS011;31519;45.408;10.962;2022-12-18T05:07:35;10.52;;;5.07;;
45812;SDS011;31519;45.408;10.962;2022-12-18T05:10:03;6.20;;;4.82;;
45812;SDS011;31519;45.408;10.962;2022-12-18T05:12:34;8.73;;;4.45;;
45812;SDS011;31519;45.408;10.962;2022-12-18T05:15:26;9.35;;;5.80;;
45812;SDS011;31519;45.408;10.962;2022-12-18T05:17:56;9.00;;;4.63;;
45812;SDS011;31519;45.408;10.962;2022-12-18T05:20:28;11.07;;;6.00;;
45812;SDS011;31519;45.408;10.962;2022-12-18T05:22:56;8.40;;;4.57;;
45812;SDS011;31519;45.408;10.962;2022-12-18T05:25:24;8.35;;;4.57;;
45812;SDS011;31519;45.408;10.962;2022-12-18T05:27:52;6.70;;;4.50;;
45812;SDS011;31519;45.408;10.962;2022-12-18T05:30:21;9.55;;;4.50;;
45812;SDS011;31519;45.408;10.962;2022-12-18T05:32:49;7.15;;;4.72;;
45812;SDS011;31519;45.408;10.962;2022-12-18T05:35:18;7.55;;;4.50;;
45812;SDS011;31519;45.408;10.962;2022-12-18T05:37:46;6.95;;;4.50;;
45812;SDS011;31519;45.408;10.962;2022-12-18T05:40:14;8.50;;;4.43;;
45812;SDS011;31519;45.408;10.962;2022-12-18T05:42:42;7.72;;;4.72;;
45812;SDS011;31519;45.408;10.962;2022-12-18T05:45:10;10.38;;;4.93;;
45812;SDS011;31519;45.408;10.962;2022-12-18T05:47:38;6.28;;;4.00;;
45812;SDS011;31519;45.408;10.962;2022-12-18T05:50:07;14.82;;;6.88;;
45812;SDS011;31519;45.408;10.962;2022-12-18T05:52:35;7.63;;;4.32;;
45812;SDS011;31519;45.408;10.962;2022-12-18T05:55:03;7.10;;;4.20;;
45812;SDS011;31519;45.408;10.962;2022-12-18T05:57:32;8.70;;;5.55;;
45812;SDS011;31519;45.408;10.962;2022-12-18T06:00:00;7.80;;;4.50;;
45812;SDS011;31519;45.408;10.962;2022-12-18T06:02:38;9.20;;;5.22;;
45812;SDS011;31519;45.408;10.962;2022-12-18T06:05:06;7.00;;;5.15;;
45812;SDS011;31519;45.408;10.962;2022-12-18T06:07:35;5.65;;;4.35;;
45812;SDS011;31519;45.408;10.962;2022-12-18T06:10:03;9.55;;;5.30;;
45812;SDS011;31519;45.408;10.962;2022-12-18T06:12:31;7.18;;;4.15;;
45812;SDS011;31519;45.408;10.962;2022-12-18T06:15:01;4.75;;;3.60;;
45812;SDS011;31519;45.408;10.962;2022-12-18T06:17:32;6.03;;;3.88;;
45812;SDS011;31519;45.408;10.962;2022-12-18T06:20:02;7.37;;;4.40;;
45812;SDS011;31519;45.408;10.962;2022-12-18T06:22:31;7.93;;;4.57;;
45812;SDS011;31519;45.408;10.962;2022-12-18T06:25:01;10.60;;;4.72;;
45812;SDS011;31519;45.408;10.962;2022-12-18T06:27:29;8.02;;;4.88;;
45812;SDS011;31519;45.408;10.962;2022-12-18T06:29:57;5.70;;;4.07;;
45812;SDS011;31519;45.408;10.962;2022-12-18T06:32:26;7.15;;;4.70;;
45812;SDS011;31519;45.408;10.962;2022-12-18T06:34:54;12.98;;;5.18;;
45812;SDS011;31519;45.408;10.962;2022-12-18T06:37:22;14.25;;;5.53;;
45812;SDS011;31519;45.408;10.962;2022-12-18T06:39:54;17.02;;;6.43;;
45812;SDS011;31519;45.408;10.962;2022-12-18T06:42:24;16.08;;;6.32;;
45812;SDS011;31519;45.408;10.962;2022-12-18T06:44:52;12.18;;;6.35;;
45812;SDS011;31519;45.408;10.962;2022-12-18T06:47:21;14.32;;;7.35;;
45812;SDS011;31519;45.408;10.962;2022-12-18T06:49:49;14.63;;;6.50;;
45812;SDS011;31519;45.408;10.962;2022-12-18T06:52:17;10.55;;;6.55;;
45812;SDS011;31519;45.408;10.962;2022-12-18T06:54:45;11.35;;;6.43;;
45812;SDS011;31519;45.408;10.962;2022-12-18T06:57:13;9.70;;;6.68;;
45812;SDS011;31519;45.408;10.962;2022-12-18T06:59:41;13.57;;;7.30;;
45812;SDS011;31519;45.408;10.962;2022-12-18T07:02:12;19.38;;;7.80;;
45812;SDS011;31519;45.408;10.962;2022-12-18T07:04:42;15.60;;;6.32;;
45812;SDS011;31519;45.408;10.962;2022-12-18T07:07:10;19.17;;;7.47;;
45812;SDS011;31519;45.408;10.962;2022-12-18T07:09:38;11.15;;;7.07;;
45812;SDS011;31519;45.408;10.962;2022-12-18T07:12:06;10.60;;;6.25;;
45812;SDS011;31519;45.408;10.962;2022-12-18T07:14:35;13.90;;;6.75;;
45812;SDS011;31519;45.408;10.962;2022-12-18T07:17:03;10.70;;;6.63;;
45812;SDS011;31519;45.408;10.962;2022-12-18T07:19:33;9.70;;;5.45;;
45812;SDS011;31519;45.408;10.962;2022-12-18T07:22:01;14.13;;;6.65;;
45812;SDS011;31519;45.408;10.962;2022-12-18T07:24:32;9.25;;;6.10;;
45812;SDS011;31519;45.408;10.962;2022-12-18T07:27:02;15.30;;;8.73;;
45812;SDS011;31519;45.408;10.962;2022-12-18T07:29:31;9.82;;;6.18;;
45812;SDS011;31519;45.408;10.962;2022-12-18T07:31:59;11.20;;;6.35;;
45812;SDS011;31519;45.408;10.962;2022-12-18T07:34:28;13.35;;;7.32;;
45812;SDS011;31519;45.408;10.962;2022-12-18T07:36:55;20.35;;;7.00;;
45812;SDS011;31519;45.408;10.962;2022-12-18T07:39:24;12.43;;;6.97;;
45812;SDS011;31519;45.408;10.962;2022-12-18T07:41:52;16.50;;;6.93;;
45812;SDS011;31519;45.408;10.962;2022-12-18T07:44:40;11.93;;;7.13;;
45812;SDS011;31519;45.408;10.962;2022-12-18T07:47:08;10.05;;;6.30;;
45812;SDS011;31519;45.408;10.962;2022-12-18T07:49:39;9.95;;;5.93;;
45812;SDS011;31519;45.408;10.962;2022-12-18T07:52:07;13.13;;;6.28;;
45812;SDS011;31519;45.408;10.962;2022-12-18T07:54:36;12.27;;;6.05;;
45812;SDS011;31519;45.408;10.962;2022-12-18T07:57:04;17.40;;;6.35;;
45812;SDS011;31519;45.408;10.962;2022-12-18T07:59:52;11.05;;;6.13;;
45812;SDS011;31519;45.408;10.962;2022-12-18T08:02:20;10.57;;;6.68;;
45812;SDS011;31519;45.408;10.962;2022-12-18T08:04:48;11.15;;;7.22;;
45812;SDS011;31519;45.408;10.962;2022-12-18T08:07:16;10.50;;;6.63;;
45812;SDS011;31519;45.408;10.962;2022-12-18T08:09:45;12.43;;;6.82;;
45812;SDS011;31519;45.408;10.962;2022-12-18T08:12:12;11.68;;;6.78;;
45812;SDS011;31519;45.408;10.962;2022-12-18T08:14:41;24.75;;;7.82;;
45812;SDS011;31519;45.408;10.962;2022-12-18T08:17:08;11.60;;;6.93;;
45812;SDS011;31519;45.408;10.962;2022-12-18T08:19:37;13.75;;;6.95;;
45812;SDS011;31519;45.408;10.962;2022-12-18T08:22:05;11.10;;;7.30;;
45812;SDS011;31519;45.408;10.962;2022-12-18T08:24:33;14.52;;;7.32;;
45812;SDS011;31519;45.408;10.962;2022-12-18T08:27:01;19.70;;;8.00;;
45812;SDS011;31519;45.408;10.962;2022-12-18T08:29:49;16.58;;;8.85;;
45812;SDS011;31519;45.408;10.962;2022-12-18T08:32:17;15.73;;;8.32;;
45812;SDS011;31519;45.408;10.962;2022-12-18T08:34:46;13.82;;;8.45;;
45812;SDS011;31519;45.408;10.962;2022-12-18T08:37:14;13.73;;;8.30;;
45812;SDS011;31519;45.408;10.962;2022-12-18T08:39:42;30.15;;;13.18;;
45812;SDS011;31519;45.408;10.962;2022-12-18T08:42:10;17.02;;;9.07;;
45812;SDS011;31519;45.408;10.962;2022-12-18T08:44:56;14.18;;;8.43;;
45812;SDS011;31519;45.408;10.962;2022-12-18T08:47:24;11.05;;;6.88;;
45812;SDS011;31519;45.408;10.962;2022-12-18T08:49:53;16.52;;;9.18;;
45812;SDS011;31519;45.408;10.962;2022-12-18T08:52:21;17.90;;;8.27;;
45812;SDS011;31519;45.408;10.962;2022-12-18T08:54:50;24.42;;;9.20;;
45812;SDS011;31519;45.408;10.962;2022-12-18T08:57:18;14.93;;;8.15;;
45812;SDS011;31519;45.408;10.962;2022-12-18T08:59:46;19.00;;;8.95;;
45812;SDS011;31519;45.408;10.962;2022-12-18T09:02:15;27.60;;;12.35;;
45812;SDS011;31519;45.408;10.962;2022-12-18T09:04:46;14.68;;;8.85;;
45812;SDS011;31519;45.408;10.962;2022-12-18T09:07:23;11.90;;;8.57;;
45812;SDS011;31519;45.408;10.962;2022-12-18T09:09:51;20.55;;;10.25;;
45812;SDS011;31519;45.408;10.962;2022-12-18T09:12:19;19.52;;;10.30;;
45812;SDS011;31519;45.408;10.962;2022-12-18T09:14:49;18.02;;;8.32;;
45812;SDS011;31519;45.408;10.962;2022-12-18T09:17:17;15.48;;;7.85;;
45812;SDS011;31519;45.408;10.962;2022-12-18T09:19:45;14.70;;;8.77;;
45812;SDS011;31519;45.408;10.962;2022-12-18T09:22:14;16.67;;;9.23;;
45812;SDS011;31519;45.408;10.962;2022-12-18T09:24:42;13.95;;;8.10;;
45812;SDS011;31519;45.408;10.962;2022-12-18T09:27:13;16.98;;;9.38;;
45812;SDS011;31519;45.408;10.962;2022-12-18T09:29:42;14.20;;;8.45;;
45812;SDS011;31519;45.408;10.962;2022-12-18T09:32:10;24.73;;;8.65;;
45812;SDS011;31519;45.408;10.962;2022-12-18T09:34:39;15.20;;;8.68;;
45812;SDS011;31519;45.408;10.962;2022-12-18T09:37:07;22.00;;;8.95;;
45812;SDS011;31519;45.408;10.962;2022-12-18T09:39:36;17.85;;;9.60;;
45812;SDS011;31519;45.408;10.962;2022-12-18T09:42:04;23.48;;;8.55;;
45812;SDS011;31519;45.408;10.962;2022-12-18T09:44:35;13.82;;;8.27;;
45812;SDS011;31519;45.408;10.962;2022-12-18T09:49:50;13.43;;;8.93;;
45812;SDS011;31519;45.408;10.962;2022-12-18T09:55:02;15.00;;;8.05;;
45812;SDS011;31519;45.408;10.962;2022-12-18T09:57:51;13.38;;;7.57;;
45812;SDS011;31519;45.408;10.962;2022-12-18T10:00:25;10.63;;;7.78;;
45812;SDS011;31519;45.408;10.962;2022-12-18T10:02:56;13.25;;;7.82;;
45812;SDS011;31519;45.408;10.962;2022-12-18T10:08:22;10.43;;;7.30;;
45812;SDS011;31519;45.408;10.962;2022-12-18T10:14:19;14.55;;;8.18;;
45812;SDS011;31519;45.408;10.962;2022-12-18T10:22:11;13.45;;;7.57;;
45812;SDS011;31519;45.408;10.962;2022-12-18T10:27:50;15.55;;;7.35;;
45812;SDS011;31519;45.408;10.962;2022-12-18T10:30:21;13.43;;;8.32;;
45812;SDS011;31519;45.408;10.962;2022-12-18T10:32:52;16.55;;;7.07;;
45812;SDS011;31519;45.408;10.962;2022-12-18T10:35:24;10.60;;;7.20;;
45812;SDS011;31519;45.408;10.962;2022-12-18T10:38:01;14.63;;;8.40;;
45812;SDS011;31519;45.408;10.962;2022-12-18T10:40:52;10.45;;;7.05;;
45812;SDS011;31519;45.408;10.962;2022-12-18T10:46:00;12.88;;;7.25;;
45812;SDS011;31519;45.408;10.962;2022-12-18T10:48:48;13.05;;;7.47;;
45812;SDS011;31519;45.408;10.962;2022-12-18T10:51:31;11.20;;;7.30;;
45812;SDS011;31519;45.408;10.962;2022-12-18T10:56:35;12.57;;;7.72;;
45812;SDS011;31519;45.408;10.962;2022-12-18T10:59:06;18.25;;;7.95;;
45812;SDS011;31519;45.408;10.962;2022-12-18T11:04:19;12.95;;;7.90;;
45812;SDS011;31519;45.408;10.962;2022-12-18T11:07:00;12.82;;;7.65;;
45812;SDS011;31519;45.408;10.962;2022-12-18T11:09:31;9.88;;;7.32;;
45812;SDS011;31519;45.408;10.962;2022-12-18T11:12:02;10.52;;;7.20;;
45812;SDS011;31519;45.408;10.962;2022-12-18T11:14:52;12.00;;;7.32;;
45812;SDS011;31519;45.408;10.962;2022-12-18T11:17:33;10.82;;;7.97;;
45812;SDS011;31519;45.408;10.962;2022-12-18T11:20:04;11.70;;;7.50;;
45812;SDS011;31519;45.408;10.962;2022-12-18T11:22:37;12.82;;;7.63;;
45812;SDS011;31519;45.408;10.962;2022-12-18T11:28:03;13.35;;;8.80;;
45812;SDS011;31519;45.408;10.962;2022-12-18T11:31:17;11.90;;;7.53;;
45812;SDS011;31519;45.408;10.962;2022-12-18T11:33:52;13.13;;;7.63;;
45812;SDS011;31519;45.408;10.962;2022-12-18T11:36:50;12.52;;;8.00;;
45812;SDS011;31519;45.408;10.962;2022-12-18T11:42:04;11.43;;;7.88;;
45812;SDS011;31519;45.408;10.962;2022-12-18T11:44:45;13.57;;;8.43;;
45812;SDS011;31519;45.408;10.962;2022-12-18T11:52:20;11.52;;;8.43;;
45812;SDS011;31519;45.408;10.962;2022-12-18T11:54:53;14.50;;;8.38;;
45812;SDS011;31519;45.408;10.962;2022-12-18T12:00:04;9.80;;;7.40;;
45812;SDS011;31519;45.408;10.962;2022-12-18T12:08:36;11.38;;;7.95;;
45812;SDS011;31519;45.408;10.962;2022-12-18T12:11:48;13.52;;;9.65;;
45812;SDS011;31519;45.408;10.962;2022-12-18T12:14:38;15.77;;;8.95;;
45812;SDS011;31519;45.408;10.962;2022-12-18T12:17:42;14.18;;;8.00;;
45812;SDS011;31519;45.408;10.962;2022-12-18T12:26:05;10.98;;;8.00;;
45812;SDS011;31519;45.408;10.962;2022-12-18T12:34:16;9.95;;;6.82;;
45812;SDS011;31519;45.408;10.962;2022-12-18T12:39:47;11.45;;;6.35;;
45812;SDS011;31519;45.408;10.962;2022-12-18T12:42:22;7.60;;;5.78;;
45812;SDS011;31519;45.408;10.962;2022-12-18T12:45:21;9.30;;;5.93;;
45812;SDS011;31519;45.408;10.962;2022-12-18T12:47:54;10.18;;;6.80;;
45812;SDS011;31519;45.408;10.962;2022-12-18T12:50:25;12.98;;;7.20;;
45812;SDS011;31519;45.408;10.962;2022-12-18T12:52:54;10.30;;;6.38;;
45812;SDS011;31519;45.408;10.962;2022-12-18T12:55:25;10.70;;;7.55;;
45812;SDS011;31519;45.408;10.962;2022-12-18T12:58:16;11.82;;;7.22;;
45812;SDS011;31519;45.408;10.962;2022-12-18T13:03:56;9.27;;;6.85;;
45812;SDS011;31519;45.408;10.962;2022-12-18T13:06:59;8.63;;;6.25;;
45812;SDS011;31519;45.408;10.962;2022-12-18T13:09:33;10.25;;;6.72;;
45812;SDS011;31519;45.408;10.962;2022-12-18T13:12:22;9.18;;;6.30;;
45812;SDS011;31519;45.408;10.962;2022-12-18T13:15:19;10.88;;;7.80;;
45812;SDS011;31519;45.408;10.962;2022-12-18T13:17:56;14.30;;;7.97;;
45812;SDS011;31519;45.408;10.962;2022-12-18T13:23:32;10.10;;;6.47;;
45812;SDS011;31519;45.408;10.962;2022-12-18T13:29:06;11.25;;;5.75;;
45812;SDS011;31519;45.408;10.962;2022-12-18T13:36:55;9.18;;;6.95;;
45812;SDS011;31519;45.408;10.962;2022-12-18T13:39:44;10.90;;;6.55;;
45812;SDS011;31519;45.408;10.962;2022-12-18T13:45:00;8.70;;;6.30;;
45812;SDS011;31519;45.408;10.962;2022-12-18T13:47:32;8.32;;;6.47;;
45812;SDS011;31519;45.408;10.962;2022-12-18T13:50:09;8.63;;;5.95;;
45812;SDS011;31519;45.408;10.962;2022-12-18T13:52:49;11.13;;;6.95;;
45812;SDS011;31519;45.408;10.962;2022-12-18T13:55:19;9.88;;;5.75;;
45812;SDS011;31519;45.408;10.962;2022-12-18T13:57:50;10.75;;;6.78;;
45812;SDS011;31519;45.408;10.962;2022-12-18T14:00:32;10.63;;;6.82;;
45812;SDS011;31519;45.408;10.962;2022-12-18T14:03:00;9.48;;;6.78;;
45812;SDS011;31519;45.408;10.962;2022-12-18T14:05:35;22.70;;;10.32;;
45812;SDS011;31519;45.408;10.962;2022-12-18T14:08:08;6.75;;;5.85;;
45812;SDS011;31519;45.408;10.962;2022-12-18T14:10:42;9.70;;;5.82;;
45812;SDS011;31519;45.408;10.962;2022-12-18T14:13:21;7.95;;;6.22;;
45812;SDS011;31519;45.408;10.962;2022-12-18T14:15:56;11.05;;;6.60;;
45812;SDS011;31519;45.408;10.962;2022-12-18T14:18:33;9.70;;;6.20;;
45812;SDS011;31519;45.408;10.962;2022-12-18T14:21:26;7.35;;;5.72;;
45812;SDS011;31519;45.408;10.962;2022-12-18T14:26:46;15.98;;;8.60;;
45812;SDS011;31519;45.408;10.962;2022-12-18T14:29:27;13.05;;;6.15;;
45812;SDS011;31519;45.408;10.962;2022-12-18T14:32:12;10.80;;;7.80;;
45812;SDS011;31519;45.408;10.962;2022-12-18T14:37:23;9.77;;;6.65;;
45812;SDS011;31519;45.408;10.962;2022-12-18T14:39:53;31.90;;;17.00;;
45812;SDS011;31519;45.408;10.962;2022-12-18T14:42:21;12.77;;;7.18;;
45812;SDS011;31519;45.408;10.962;2022-12-18T14:44:50;23.60;;;12.85;;
45812;SDS011;31519;45.408;10.962;2022-12-18T14:47:37;15.00;;;9.23;;
45812;SDS011;31519;45.408;10.962;2022-12-18T14:50:11;12.73;;;9.30;;
45812;SDS011;31519;45.408;10.962;2022-12-18T14:52:41;12.85;;;7.53;;
45812;SDS011;31519;45.408;10.962;2022-12-18T14:55:18;10.60;;;6.97;;
45812;SDS011;31519;45.408;10.962;2022-12-18T14:57:49;7.95;;;6.15;;
45812;SDS011;31519;45.408;10.962;2022-12-18T15:00:22;13.27;;;8.05;;
45812;SDS011;31519;45.408;10.962;2022-12-18T15:02:55;29.42;;;18.10;;
45812;SDS011;31519;45.408;10.962;2022-12-18T15:05:25;20.73;;;11.40;;
45812;SDS011;31519;45.408;10.962;2022-12-18T15:07:58;34.08;;;20.85;;
45812;SDS011;31519;45.408;10.962;2022-12-18T15:10:30;22.45;;;13.18;;
45812;SDS011;31519;45.408;10.962;2022-12-18T15:18:10;13.60;;;7.35;;
45812;SDS011;31519;45.408;10.962;2022-12-18T15:20:45;17.50;;;7.72;;
45812;SDS011;31519;45.408;10.962;2022-12-18T15:28:50;20.63;;;9.43;;
45812;SDS011;31519;45.408;10.962;2022-12-18T15:31:32;15.68;;;8.32;;
45812;SDS011;31519;45.408;10.962;2022-12-18T15:36:36;14.38;;;8.52;;
45812;SDS011;31519;45.408;10.962;2022-12-18T15:39:03;16.08;;;9.65;;
45812;SDS011;31519;45.408;10.962;2022-12-18T15:41:34;18.23;;;11.02;;
45812;SDS011;31519;45.408;10.962;2022-12-18T15:44:16;27.52;;;12.32;;
45812;SDS011;31519;45.408;10.962;2022-12-18T15:46:50;35.95;;;16.88;;
45812;SDS011;31519;45.408;10.962;2022-12-18T15:49:18;19.95;;;10.00;;
45812;SDS011;31519;45.408;10.962;2022-12-18T15:51:49;22.92;;;12.07;;
45812;SDS011;31519;45.408;10.962;2022-12-18T15:54:22;16.98;;;10.80;;
45812;SDS011;31519;45.408;10.962;2022-12-18T15:57:11;20.10;;;13.00;;
45812;SDS011;31519;45.408;10.962;2022-12-18T15:59:51;24.60;;;16.13;;
45812;SDS011;31519;45.408;10.962;2022-12-18T16:02:21;25.48;;;16.73;;
45812;SDS011;31519;45.408;10.962;2022-12-18T16:04:51;28.83;;;15.50;;
45812;SDS011;31519;45.408;10.962;2022-12-18T16:07:20;29.58;;;16.17;;
45812;SDS011;31519;45.408;10.962;2022-12-18T16:09:51;27.02;;;16.42;;
45812;SDS011;31519;45.408;10.962;2022-12-18T16:12:21;30.15;;;17.02;;
45812;SDS011;31519;45.408;10.962;2022-12-18T16:14:52;38.72;;;21.48;;
45812;SDS011;31519;45.408;10.962;2022-12-18T16:17:20;39.70;;;22.35;;
45812;SDS011;31519;45.408;10.962;2022-12-18T16:19:48;84.88;;;40.88;;
45812;SDS011;31519;45.408;10.962;2022-12-18T16:22:21;69.85;;;30.02;;
45812;SDS011;31519;45.408;10.962;2022-12-18T16:24:56;37.00;;;20.55;;
45812;SDS011;31519;45.408;10.962;2022-12-18T16:27:25;45.22;;;24.23;;
45812;SDS011;31519;45.408;10.962;2022-12-18T16:29:53;31.27;;;18.40;;
45812;SDS011;31519;45.408;10.962;2022-12-18T16:32:21;46.80;;;25.00;;
45812;SDS011;31519;45.408;10.962;2022-12-18T16:34:51;36.35;;;19.27;;
45812;SDS011;31519;45.408;10.962;2022-12-18T16:37:19;34.05;;;19.45;;
45812;SDS011;31519;45.408;10.962;2022-12-18T16:39:47;37.58;;;19.23;;
45812;SDS011;31519;45.408;10.962;2022-12-18T16:42:19;34.63;;;19.27;;
45812;SDS011;31519;45.408;10.962;2022-12-18T16:44:48;34.58;;;18.20;;
45812;SDS011;31519;45.408;10.962;2022-12-18T16:47:17;31.52;;;17.92;;
45812;SDS011;31519;45.408;10.962;2022-12-18T16:49:45;29.85;;;17.10;;
45812;SDS011;31519;45.408;10.962;2022-12-18T16:52:15;37.45;;;19.17;;
45812;SDS011;31519;45.408;10.962;2022-12-18T16:54:44;32.08;;;18.50;;
45812;SDS011;31519;45.408;10.962;2022-12-18T16:57:13;32.83;;;19.10;;
45812;SDS011;31519;45.408;10.962;2022-12-18T16:59:44;37.33;;;21.23;;
45812;SDS011;31519;45.408;10.962;2022-12-18T17:02:24;257.25;;;104.13;;